Data for 07/07/2005

Time Sea-Level Adjusted Pressure Absolute Pressure Temperature Relative Humidity Dew Point   
(mb) (inHg) (mb) (inHg) (C) (F) (%) (C) (F)
00:05 1014 29.94 844 24.92 22 71.7 35 5.9 42.6
00:10 1014 29.94 844 24.92 22.3 72.2 34 5.7 42.3
00:15 1014 29.94 844 24.92 22.4 72.3 39 7.9 46.3
00:20 1015 29.97 844 24.92 22.2 72 36 6.6 43.9
00:25 1015 29.97 844 24.92 21.8 71.3 40 7.7 45.9
00:30 1015 29.97 844 24.92 20.6 69.1 46 8.6 47.5
00:35 1015 29.97 844 24.92 19.9 67.8 43 7.1 44.8
00:40 1015 29.97 844 24.92 20.2 68.3 43 7.4 45.3
00:45 1015 29.97 844 24.92 20 68.1 43 7.3 45.1
00:50 1015 29.97 844 24.92 20.6 69 37 5.7 42.3
00:55 1015 29.97 844 24.92 21.2 70.1 38 6.3 43.3
01:00 1015 29.97 844 24.92 21.1 69.9 39 6.6 43.9
01:05 1015 29.97 844 24.92 20.7 69.2 40 6.7 44.1
01:10 1015 29.97 844 24.92 20.4 68.7 41 6.7 44.1
01:15 1015 29.97 844 24.92 20.3 68.5 41 6.8 44.2
01:20 1015 29.97 844 24.92 20.3 68.5 41 6.9 44.4
01:25 1015 29.97 844 24.92 20.1 68.1 43 7.4 45.3
01:30 1015 29.97 845 24.95 19.7 67.4 44 7.3 45.1
01:35 1015 29.97 845 24.95 19.6 67.3 39 5.2 41.4
01:40 1015 29.97 845 24.95 19.8 67.6 42 6.6 43.8
01:45 1015 29.97 845 24.95 19.3 66.8 42 6.2 43.2
01:50 1015 29.97 845 24.95 19 66.2 43 6.4 43.5
01:55 1015 29.97 845 24.95 18.9 66 43 6 42.8
02:00 1015 29.97 845 24.95 19.4 67 41 6 42.8
02:05 1016 30 845 24.95 19.3 66.8 42 6.1 42.9
02:10 1016 30 845 24.95 19.3 66.7 43 6.5 43.8
02:15 1016 30 845 24.95 19.1 66.5 44 6.6 44
02:20 1016 30 845 24.95 19 66.2 44 6.7 44.1
02:25 1016 30 845 24.95 19.1 66.4 45 7 44.6
02:30 1016 30 845 24.95 18.8 65.9 46 7.1 44.8
02:35 1016 30 845 24.95 18.9 66.1 45 6.9 44.4
02:40 1016 30 845 24.95 19 66.2 46 7.3 45.2
02:45 1016 30 845 24.95 18.8 65.9 45 6.8 44.2
02:50 1016 30 845 24.95 19.4 66.9 44 6.8 44.3
02:55 1016 30 845 24.95 19.7 67.4 44 7.1 44.9
03:00 1016 30 845 24.95 19.7 67.4 44 7.2 45
03:05 1016 30 845 24.95 19.3 66.7 46 7.4 45.4
03:10 1016 30 845 24.95 19.4 66.9 45 7.2 44.9
03:15 1016 30 845 24.95 19.5 67.1 44 7.2 45
03:20 1016 30 845 24.95 19.4 66.9 46 7.5 45.5
03:25 1016 30 845 24.95 19 66.2 46 7.2 45
03:30 1016 30 845 24.95 19.1 66.3 45 7 44.6
03:35 1016 30 845 24.95 19.2 66.5 45 7.2 45
03:40 1016 30 845 24.95 18.7 65.6 48 7.5 45.6
03:45 1016 30 845 24.95 18.5 65.3 48 7.4 45.4
03:50 1016 30 845 24.95 18.1 64.6 51 8 46.5
03:55 1016 30 845 24.95 17.4 63.3 56 8.6 47.5
04:00 1016 30 845 24.95 17.1 62.8 54 7.7 45.9
04:05 1016 30 845 24.95 16.9 62.5 54 7.7 45.9
04:10 1016 30 845 24.95 16.8 62.2 55 7.8 46
04:15 1016 30 845 24.95 16.6 61.9 58 8.5 47.2
04:20 1016 30 845 24.95 16.7 62 55 7.6 45.7
04:25 1016 30 845 24.95 16.5 61.6 56 7.7 45.9
04:30 1016 30 845 24.95 16.3 61.4 56 7.6 45.7
04:35 1016 30 845 24.95 16.2 61.1 60 8.6 47.5
04:40 1016 30 845 24.95 16.1 61 57 7.6 45.7
04:45 1016 30 846 24.98 15.9 60.6 57 7.6 45.6
04:50 1016 30 846 24.98 15.6 60 58 7.4 45.4
04:55 1016 30 846 24.98 15.3 59.6 60 7.7 45.9
05:00 1016 30 846 24.98 15.3 59.5 59 7.3 45.1
05:05 1017 30.03 846 24.98 15.4 59.7 58 7.3 45.2
05:10 1017 30.03 846 24.98 15.4 59.6 59 7.4 45.3
05:15 1017 30.03 846 24.98 15.3 59.5 61 7.9 46.2
05:20 1017 30.03 846 24.98 15.2 59.3 59 7.2 45
05:25 1017 30.03 846 24.98 15.1 59.2 58 7 44.7
05:30 1017 30.03 846 24.98 15.1 59.2 57 6.8 44.3
05:35 1017 30.03 846 24.98 15.4 59.7 56 6.8 44.3
05:40 1017 30.03 846 24.98 15.3 59.5 59 7.3 45.1
05:45 1017 30.03 846 24.98 15 59 59 7 44.6
05:50 1017 30.03 846 24.98 15 58.9 58 6.9 44.3
05:55 1017 30.03 846 24.98 15.4 59.7 57 6.9 44.4
06:00 1017 30.03 846 24.98 15.5 59.9 56 6.9 44.4
06:05 1017 30.03 846 24.98 15.5 59.8 56 6.9 44.5
06:10 1017 30.03 846 24.98 15.6 60 56 6.8 44.3
06:15 1017 30.03 846 24.98 15.9 60.7 55 7.1 44.7
06:20 1017 30.03 846 24.98 15.7 60.2 57 7.3 45.2
06:25 1017 30.03 846 24.98 15.5 59.9 57 7.1 44.8
06:30 1017 30.03 846 24.98 15.5 59.8 57 7.2 44.9
06:35 1017 30.03 846 24.98 15.6 60 57 7.1 44.7
06:40 1017 30.03 846 24.98 15.6 60.1 57 7.2 45
06:45 1017 30.03 846 24.98 15.6 60.1 61 8.2 46.7
06:50 1017 30.03 846 24.98 16 60.8 57 7.6 45.6
06:55 1017 30.03 846 24.98 15.9 60.7 59 8 46.3
07:00 1017 30.03 846 24.98 15.8 60.4 61 8.3 46.9
07:05 1017 30.03 846 24.98 15.8 60.5 60 8.1 46.5
07:10 1017 30.03 846 24.98 16 60.8 59 8 46.4
07:15 1017 30.03 846 24.98 16.4 61.6 56 7.8 46
07:20 1017 30.03 846 24.98 16.8 62.3 56 8.2 46.8
07:25 1017 30.03 846 24.98 17.2 62.9 56 8.3 47
07:30 1017 30.03 846 24.98 17.4 63.4 54 8.1 46.7
07:35 1017 30.03 846 24.98 17.6 63.7 56 8.8 47.8
07:40 1017 30.03 846 24.98 17.9 64.2 55 8.9 48
07:45 1017 30.03 846 24.98 18.2 64.7 53 8.5 47.2
07:50 1017 30.03 846 24.98 18.8 65.8 52 8.8 47.9
07:55 1017 30.03 846 24.98 19.2 66.5 52 9.1 48.4
08:00 1017 30.03 846 24.98 19.4 67 52 9.5 49.1
08:05 1017 30.03 846 24.98 19.7 67.5 49 8.9 47.9
08:10 1017 30.03 846 24.98 20.2 68.4 48 8.9 48
08:15 1017 30.03 847 25.01 20 68 48 8.8 47.8
08:20 1017 30.03 847 25.01 20.5 68.9 47 9.1 48.4
08:25 1017 30.03 847 25.01 21.1 70.1 44 8.6 47.4
08:30 1017 30.03 847 25.01 21.5 70.7 44 8.8 47.8
08:35 1018 30.06 847 25.01 21.7 71.1 45 9.3 48.8
08:40 1018 30.06 847 25.01 21.3 70.3 47 9.5 49.1
08:45 1018 30.06 847 25.01 21 69.8 47 9.5 49.1
08:50 1018 30.06 847 25.01 21.6 70.9 45 9.3 48.8
08:55 1018 30.06 847 25.01 22.2 71.9 42 8.9 48.1
09:00 1018 30.06 847 25.01 21.7 71.1 46 9.7 49.4
09:05 1018 30.06 847 25.01 22.1 71.8 42 8.9 48
09:10 1018 30.06 847 25.01 22.1 71.7 44 9.3 48.8
09:15 1018 30.06 847 25.01 21.8 71.2 44 9.2 48.6
09:20 1018 30.06 847 25.01 21.4 70.5 45 9.2 48.6
09:25 1018 30.06 847 25.01 21.4 70.4 44 8.7 47.7
09:30 1018 30.06 847 25.01 22.3 72.2 42 9.1 48.3
09:35 1018 30.06 847 25.01 22 71.7 42 8.9 47.9
09:40 1018 30.06 847 25.01 22.2 72 41 8.6 47.5
09:45 1017 30.03 847 25.01 22.5 72.4 42 9.1 48.3
09:50 1017 30.03 847 25.01 23.1 73.7 39 8.8 47.8
09:55 1017 30.03 847 25.01 23.8 74.9 38 8.9 48
10:00 1017 30.03 847 25.01 24 75.3 39 9.3 48.8
10:05 1017 30.03 847 25.01 24.4 76 37 9.2 48.5
10:10 1017 30.03 847 25.01 23.8 74.9 40 9.8 49.6
10:15 1017 30.03 847 25.01 23 73.4 42 9.6 49.3
10:20 1018 30.06 847 25.01 22.9 73.2 41 9.3 48.7
10:25 1018 30.06 847 25.01 23.2 73.8 41 9.6 49.3
10:30 1017 30.03 847 25.01 23.3 73.9 41 9.6 49.2
10:35 1017 30.03 847 25.01 23.4 74.1 42 10 50
10:40 1017 30.03 847 25.01 23.3 73.9 40 9.3 48.7
10:45 1017 30.03 847 25.01 23.8 74.8 39 9.3 48.8
10:50 1017 30.03 847 25.01 24 75.1 39 9.4 48.9
10:55 1017 30.03 847 25.01 24.9 76.8 37 9.5 49
11:00 1017 30.03 847 25.01 25.1 77.2 38 10 49.9
11:05 1017 30.03 847 25.01 24.8 76.7 38 9.9 49.8
11:10 1017 30.03 846 24.98 24 75.3 39 9.5 49.1
11:15 1017 30.03 846 24.98 24.1 75.3 38 9.2 48.6
11:20 1017 30.03 846 24.98 25.1 77.1 37 9.5 49.2
11:25 1017 30.03 846 24.98 25.1 77.1 38 10 50
11:30 1017 30.03 846 24.98 25.1 77.1 35 8.9 48
11:35 1017 30.03 846 24.98 26.3 79.3 33 9.1 48.4
11:40 1017 30.03 846 24.98 26.9 80.3 33 9.6 49.3
11:45 1017 30.03 846 24.98 26.2 79.1 33 9 48.3
11:50 1017 30.03 846 24.98 26.6 79.8 32 8.9 48
11:55 1017 30.03 846 24.98 27.2 81 32 9.6 49.2
12:00 1017 30.03 846 24.98 27.3 81.1 32 9.6 49.2
12:05 1017 30.03 846 24.98 27.1 80.8 33 9.6 49.2
12:10 1017 30.03 846 24.98 27.9 82.2 31 9.5 49.1
12:15 1017 30.03 846 24.98 27.3 81.2 34 10.4 50.6
12:20 1017 30.03 846 24.98 27.8 82 32 9.7 49.4
12:25 1017 30.03 846 24.98 28.5 83.4 30 9.7 49.5
12:30 1017 30.03 846 24.98 28.6 83.5 30 9.7 49.5
12:35 1017 30.03 846 24.98 28.5 83.3 30 9.5 49.1
12:40 1017 30.03 846 24.98 28.9 84 29 9.6 49.2
12:45 1016 30 846 24.98 29.3 84.7 28 9.1 48.3
12:50 1016 30 846 24.98 29.6 85.4 28 9.3 48.8
12:55 1016 30 846 24.98 30.1 86.1 26 8.9 48
13:00 1016 30 845 24.95 29.6 85.4 26 8.7 47.6
13:05 1016 30 845 24.95 29.3 84.7 27 8.6 47.4
13:10 1016 30 845 24.95 29.7 85.4 24 7.6 45.7
13:15 1016 30 845 24.95 29.5 85.1 28 9.3 48.7
13:20 1016 30 845 24.95 29 84.1 26 8.1 46.6
13:25 1016 30 845 24.95 29.2 84.6 26 8.1 46.6
13:30 1016 30 845 24.95 29.6 85.3 26 8.3 46.9
13:35 1016 30 845 24.95 30.2 86.4 26 8.9 48
13:40 1016 30 845 24.95 30.2 86.4 25 8.1 46.6
13:45 1016 30 845 24.95 30.2 86.3 25 8.5 47.3
13:50 1016 30 845 24.95 30.5 87 25 8.4 47.1
13:55 1016 30 845 24.95 30 86 27 9.3 48.7
14:00 1016 30 845 24.95 29.2 84.5 29 9.5 49
14:05 1016 30 845 24.95 29.1 84.3 29 9.3 48.7
14:10 1016 30 845 24.95 28.7 83.7 28 8.7 47.7
14:15 1016 30 845 24.95 28.4 83.1 29 8.7 47.7
14:20 1016 30 845 24.95 28.9 84.1 27 8.4 47.1
14:25 1016 30 845 24.95 29.5 85.2 25 8 46.5
14:30 1016 30 845 24.95 29.4 84.9 26 8.4 47.1
14:35 1016 30 845 24.95 29.4 84.8 26 8 46.3
14:40 1016 30 845 24.95 29.8 85.6 26 8.6 47.4
14:45 1016 30 845 24.95 29.8 85.6 25 8 46.4
14:50 1016 30 845 24.95 29.9 85.9 25 7.8 46.1
14:55 1016 30 845 24.95 30.8 87.4 24 8 46.4
15:00 1016 30 845 24.95 31.1 87.9 22 7.5 45.5
15:05 1016 30 845 24.95 31.1 87.9 23 7.9 46.2
15:10 1016 30 845 24.95 30.3 86.6 24 7.9 46.3
15:15 1016 30 845 24.95 30.5 86.9 23 7.4 45.3
15:20 1016 30 845 24.95 31.5 88.6 22 7.8 46
15:25 1016 30 845 24.95 31.5 88.7 22 7.7 45.9
15:30 1015 29.97 845 24.95 30.5 86.9 23 7.6 45.7
15:35 1015 29.97 845 24.95 29.7 85.4 24 7 44.7
15:40 1016 30 845 24.95 29.9 85.9 23 6.8 44.3
15:45 1015 29.97 845 24.95 30.2 86.4 23 6.8 44.3
15:50 1015 29.97 845 24.95 30.9 87.7 22 6.9 44.3
15:55 1015 29.97 844 24.92 30.7 87.3 22 6.9 44.4
16:00 1015 29.97 844 24.92 31.6 88.8 20 6.5 43.7
16:05 1015 29.97 844 24.92 31.7 89 20 6.6 43.8
16:10 1015 29.97 844 24.92 31 87.8 22 6.9 44.4
16:15 1015 29.97 844 24.92 31.1 88 21 6.4 43.5
16:20 1015 29.97 845 24.95 30.5 86.9 21 6.3 43.4
16:25 1015 29.97 845 24.95 31.2 88.2 23 8 46.4
16:30 1015 29.97 845 24.95 30.5 86.9 24 8 46.5
16:35 1015 29.97 845 24.95 29.2 84.6 31 10.5 51
16:40 1015 29.97 845 24.95 27.1 80.8 34 10.2 50.3
16:45 1015 29.97 845 24.95 25.6 78.2 36 9.8 49.6
16:50 1015 29.97 844 24.92 24.8 76.7 38 9.6 49.2
16:55 1016 30 845 24.95 24.8 76.7 43 11.4 52.6
17:00 1015 29.97 844 24.92 24 75.3 49 12.9 55.3
17:05 1015 29.97 845 24.95 23.2 73.8 51 12.6 54.7
17:10 1016 30 845 24.95 23.6 74.5 47 11.7 53
17:15 1016 30 845 24.95 24.4 75.9 41 10.5 50.9
17:20 1016 30 845 24.95 24.8 76.7 40 10.5 50.9
17:25 1016 30 845 24.95 24.9 76.8 38 9.9 49.7
17:30 1016 30 845 24.95 25 77 39 10.5 50.8
17:35 1016 30 845 24.95 25.2 77.4 40 10.8 51.4
17:40 1016 30 845 24.95 25.6 78.1 37 9.9 49.9
17:45 1016 30 845 24.95 25.8 78.5 36 9.8 49.7
17:50 1016 30 845 24.95 26.2 79.1 33 8.8 47.8
17:55 1016 30 845 24.95 26.5 79.8 33 9.4 48.8
18:00 1016 30 845 24.95 26.6 79.9 32 9 48.2
18:05 1016 30 845 24.95 26.8 80.2 34 9.7 49.5
18:10 1016 30 845 24.95 27.1 80.7 32 9.1 48.3
18:15 1016 30 845 24.95 27.1 80.7 32 9.2 48.6
18:20 1016 30 845 24.95 27.5 81.4 32 9.7 49.4
18:25 1015 29.97 845 24.95 27.5 81.6 32 9.8 49.7
18:30 1015 29.97 845 24.95 27.1 80.8 34 10 50
18:35 1015 29.97 845 24.95 27 80.6 34 10.2 50.4
18:40 1015 29.97 844 24.92 27 80.6 33 9.8 49.6
18:45 1015 29.97 844 24.92 27.2 80.9 32 9.4 49
18:50 1015 29.97 844 24.92 27.5 81.4 30 8.8 47.8
18:55 1015 29.97 844 24.92 27.6 81.7 32 9.8 49.6
19:00 1015 29.97 844 24.92 27.4 81.3 33 9.9 49.9
19:05 1015 29.97 844 24.92 26.9 80.5 33 9.7 49.5
19:10 1015 29.97 844 24.92 26.4 79.6 34 9.5 49.1
19:15 1015 29.97 845 24.95 26.2 79.2 36 10 50.1
19:20 1015 29.97 845 24.95 26 78.9 36 10.2 50.3
19:25 1015 29.97 844 24.92 25.8 78.5 36 10 50
19:30 1015 29.97 844 24.92 25.9 78.6 37 10.4 50.7
19:35 1015 29.97 844 24.92 26 78.7 38 10.7 51.3
19:40 1015 29.97 844 24.92 26.1 79 38 10.9 51.6
19:45 1015 29.97 844 24.92 26.2 79.1 37 10.5 50.8
19:50 1015 29.97 844 24.92 26.2 79.1 38 10.8 51.5
19:55 1015 29.97 844 24.92 26 78.8 39 11.1 52
20:00 1015 29.97 844 24.92 25.6 78 40 11.4 52.5
20:05 1015 29.97 844 24.92 25.2 77.4 40 11 51.8
20:10 1015 29.97 844 24.92 25.1 77.3 40 10.8 51.4
20:15 1015 29.97 844 24.92 25.1 77.2 39 10.5 51
20:20 1015 29.97 844 24.92 25.2 77.3 38 10 50
20:25 1015 29.97 844 24.92 25.1 77.2 39 10.5 50.8
20:30 1015 29.97 844 24.92 24.9 76.9 39 10.3 50.6
20:35 1015 29.97 844 24.92 24.7 76.5 39 10.2 50.4
20:40 1015 29.97 844 24.92 24.6 76.3 40 10.2 50.4
20:45 1015 29.97 844 24.92 24.5 76.2 38 9.6 49.3
20:50 1015 29.97 844 24.92 24.6 76.2 38 9.6 49.3
20:55 1015 29.97 844 24.92 24.4 75.8 38 9.3 48.8
21:00 1015 29.97 844 24.92 24.2 75.6 38 9.1 48.3
21:05 1015 29.97 844 24.92 24.1 75.3 37 8.5 47.3
21:10 1015 29.97 844 24.92 23.9 75 38 8.8 47.8
21:15 1015 29.97 844 24.92 23.5 74.4 39 8.9 48
21:20 1015 29.97 844 24.92 23.3 73.9 39 8.9 48
21:25 1015 29.97 844 24.92 23.1 73.5 40 8.9 48
21:30 1015 29.97 844 24.92 23 73.5 40 8.7 47.7
21:35 1015 29.97 844 24.92 23.1 73.5 39 8.4 47.2
21:40 1015 29.97 844 24.92 23.2 73.7 39 8.7 47.7
21:45 1015 29.97 844 24.92 23 73.4 39 8.6 47.5
21:50 1015 29.97 844 24.92 23 73.3 39 8.6 47.5
21:55 1015 29.97 844 24.92 22.9 73.1 40 8.7 47.6
22:00 1015 29.97 844 24.92 22.8 73 39 8.4 47.1
22:05 1015 29.97 844 24.92 22.8 73 40 8.7 47.6
22:10 1015 29.97 844 24.92 22.4 72.4 43 9.3 48.8
22:15 1015 29.97 844 24.92 22.2 71.9 43 9 48.3
22:20 1015 29.97 844 24.92 22 71.6 43 9 48.2
22:25 1015 29.97 845 24.95 21.9 71.4 43 9 48.1
22:30 1015 29.97 845 24.95 21.9 71.4 43 9 48.2
22:35 1015 29.97 845 24.95 21.8 71.3 43 8.8 47.8
22:40 1015 29.97 844 24.92 21.9 71.4 42 8.7 47.6
22:45 1015 29.97 844 24.92 21.9 71.4 41 8.2 46.8
22:50 1015 29.97 844 24.92 22 71.5 41 8.4 47.2
22:55 1015 29.97 845 24.95 21.8 71.3 42 8.6 47.5
23:00 1015 29.97 845 24.95 21.6 70.8 43 8.7 47.6
23:05 1015 29.97 845 24.95 21.5 70.6 43 8.6 47.4
23:10 1015 29.97 845 24.95 21.5 70.7 43 8.5 47.3
23:15 1016 30 845 24.95 21.7 71 42 8.3 46.9
23:20 1016 30 845 24.95 21.7 71 43 8.7 47.7
23:25 1016 30 845 24.95 21.3 70.4 44 8.6 47.5
23:30 1016 30 845 24.95 21.4 70.4 45 9 48.2
23:35 1016 30 845 24.95 20.9 69.6 47 9.3 48.8
23:40 1016 30 845 24.95 20.3 68.5 49 9.3 48.8
23:45 1016 30 845 24.95 20 67.9 49 9.2 48.6
23:50 1016 30 845 24.95 20.4 68.7 51 9.9 49.9
23:55 1016 30 845 24.95 20.4 68.7 50 9.9 49.8
24:00 1016 30 845 24.95 20.4 68.7 51 10.2 50.3